Data for 11/07/2015

Time Sea-Level Adjusted Pressure Absolute Pressure Temperature Relative Humidity Dew Point   
(mb) (inHg) (mb) (inHg) (C) (F) (%) (C) (F)
00:05 1026 30.3 855 25.25 -3.7 25.4 71 -8.2 17.2
00:10 1026 30.3 855 25.25 -3.7 25.3 69 -8.5 16.6
00:15 1026 30.3 855 25.25 -3.6 25.4 68 -8.7 16.4
00:20 1026 30.3 855 25.25 -3.6 25.5 69 -8.5 16.7
00:25 1026 30.3 855 25.25 -3.5 25.6 68 -8.6 16.5
00:30 1026 30.3 855 25.25 -3.6 25.5 69 -8.5 16.7
00:35 1026 30.3 855 25.25 -3.7 25.4 69 -8.6 16.6
00:40 1026 30.3 855 25.25 -3.8 25.2 69 -8.6 16.5
00:45 1026 30.3 855 25.25 -3.9 25.1 69 -8.8 16.2
00:50 1026 30.3 855 25.25 -3.8 25.2 69 -8.7 16.3
00:55 1026 30.3 855 25.25 -3.8 25.1 69 -8.7 16.4
01:00 1026 30.3 855 25.25 -3.9 24.9 70 -8.6 16.5
01:05 1026 30.3 856 25.28 -3.9 24.9 70 -8.7 16.3
01:10 1026 30.3 855 25.25 -3.8 25.2 70 -8.6 16.6
01:15 1026 30.3 855 25.25 -3.8 25.1 69 -8.7 16.4
01:20 1026 30.3 855 25.25 -3.8 25.2 71 -8.3 17
01:25 1026 30.3 856 25.28 -3.8 25.2 72 -8 17.5
01:30 1026 30.3 855 25.25 -3.9 25.1 72 -8.2 17.3
01:35 1026 30.3 855 25.25 -4.1 24.6 73 -8.2 17.2
01:40 1026 30.3 855 25.25 -4.2 24.5 73 -8.4 16.9
01:45 1026 30.3 856 25.28 -3.8 25.1 72 -8.2 17.2
01:50 1026 30.3 855 25.25 -3.7 25.3 72 -8 17.6
01:55 1026 30.3 855 25.25 -3.6 25.5 69 -8.5 16.7
02:00 1026 30.3 855 25.25 -3.4 25.9 69 -8.2 17.2
02:05 1026 30.3 855 25.25 -3.8 25.3 71 -8.3 17
02:10 1026 30.3 855 25.25 -4.1 24.6 71 -8.5 16.6
02:15 1026 30.3 855 25.25 -3.9 24.9 69 -8.8 16.2
02:20 1026 30.3 855 25.25 -3.7 25.3 70 -8.5 16.7
02:25 1026 30.3 855 25.25 -3.9 25 70 -8.5 16.7
02:30 1026 30.3 855 25.25 -3.9 25 70 -8.6 16.6
02:35 1026 30.3 855 25.25 -3.8 25.2 70 -8.5 16.7
02:40 1026 30.3 855 25.25 -3.8 25.2 71 -8.3 17
02:45 1026 30.3 855 25.25 -4.2 24.4 75 -8.1 17.5
02:50 1026 30.3 855 25.25 -4.8 23.4 76 -8.4 16.9
02:55 1026 30.3 855 25.25 -4.8 23.3 75 -8.6 16.5
03:00 1026 30.3 855 25.25 -4.7 23.5 75 -8.5 16.7
03:05 1026 30.3 855 25.25 -4.7 23.5 75 -8.6 16.6
03:10 1026 30.3 855 25.25 -4.7 23.6 75 -8.5 16.7
03:15 1026 30.3 855 25.25 -4.7 23.6 75 -8.4 16.8
03:20 1026 30.3 855 25.25 -4.5 23.8 74 -8.5 16.7
03:25 1026 30.3 855 25.25 -4.6 23.7 75 -8.4 16.9
03:30 1026 30.3 855 25.25 -4.9 23.2 74 -8.8 16.1
03:35 1026 30.3 855 25.25 -4.8 23.3 74 -8.8 16.1
03:40 1026 30.3 855 25.25 -4.9 23.1 75 -8.7 16.4
03:45 1026 30.3 855 25.25 -5.1 22.9 75 -8.8 16.2
03:50 1026 30.3 855 25.25 -4.9 23.2 75 -8.7 16.3
03:55 1026 30.3 855 25.25 -4.8 23.3 74 -8.7 16.3
04:00 1026 30.3 855 25.25 -4.7 23.6 73 -8.8 16.2
04:05 1026 30.3 855 25.25 -4.6 23.8 74 -8.6 16.5
04:10 1026 30.3 855 25.25 -4.6 23.8 73 -8.7 16.3
04:15 1026 30.3 855 25.25 -4.5 23.8 73 -8.6 16.5
04:20 1026 30.3 855 25.25 -4.4 24 70 -9.1 15.6
04:25 1026 30.3 855 25.25 -4.2 24.4 70 -9 15.9
04:30 1026 30.3 855 25.25 -4.4 24.1 72 -8.7 16.3
04:35 1026 30.3 855 25.25 -4.8 23.3 74 -8.8 16.2
04:40 1026 30.3 855 25.25 -5.1 22.8 75 -8.9 16
04:45 1026 30.3 855 25.25 -4.9 23.1 72 -9.3 15.3
04:50 1026 30.3 855 25.25 -4.6 23.7 73 -8.7 16.3
04:55 1026 30.3 855 25.25 -4.5 24 74 -8.4 17
05:00 1025 30.27 855 25.25 -4.5 23.9 73 -8.6 16.4
05:05 1026 30.3 855 25.25 -4.7 23.6 72 -9 15.8
05:10 1026 30.3 855 25.25 -4.5 24 72 -8.8 16.1
05:15 1026 30.3 855 25.25 -4.4 24 73 -8.6 16.4
05:20 1025 30.27 855 25.25 -4.2 24.4 71 -8.7 16.4
05:25 1025 30.27 855 25.25 -4.3 24.3 74 -8.2 17.2
05:30 1025 30.27 855 25.25 -4.4 24.1 72 -8.7 16.4
05:35 1026 30.3 855 25.25 -4.3 24.2 72 -8.7 16.4
05:40 1026 30.3 855 25.25 -4.3 24.3 73 -8.4 16.8
05:45 1026 30.3 855 25.25 -4.1 24.6 70 -8.7 16.3
05:50 1025 30.27 855 25.25 -4.2 24.5 71 -8.6 16.5
05:55 1025 30.27 855 25.25 -4.1 24.6 72 -8.4 17
06:00 1025 30.27 855 25.25 -3.7 25.3 70 -8.4 16.9
06:05 1025 30.27 855 25.25 -3.7 25.4 70 -8.3 17
06:10 1025 30.27 855 25.25 -3.5 25.7 68 -8.5 16.7
06:15 1025 30.27 855 25.25 -3.5 25.7 69 -8.4 16.9
06:20 1025 30.27 855 25.25 -3.7 25.3 69 -8.6 16.5
06:25 1025 30.27 855 25.25 -3.6 25.5 68 -8.7 16.4
06:30 1025 30.27 855 25.25 -3.5 25.7 68 -8.6 16.6
06:35 1025 30.27 854 25.22 -3.6 25.5 69 -8.5 16.6
06:40 1025 30.27 854 25.22 -3.8 25.1 70 -8.5 16.7
06:45 1025 30.27 854 25.22 -4 24.7 70 -8.7 16.4
06:50 1025 30.27 854 25.22 -4 24.9 71 -8.5 16.7
06:55 1025 30.27 854 25.22 -3.8 25.1 70 -8.6 16.6
07:00 1025 30.27 854 25.22 -3.4 25.9 68 -8.5 16.6
07:05 1025 30.27 854 25.22 -3.2 26.3 67 -8.4 16.8
07:10 1025 30.27 855 25.25 -3.2 26.2 68 -8.3 17.1
07:15 1025 30.27 855 25.25 -3.8 25.1 71 -8.3 17.1
07:20 1025 30.27 855 25.25 -4.7 23.6 75 -8.4 16.9
07:25 1025 30.27 854 25.22 -5 23 76 -8.6 16.6
07:30 1025 30.27 854 25.22 -5 22.9 76 -8.7 16.4
07:35 1025 30.27 854 25.22 -5.2 22.7 77 -8.6 16.4
07:40 1025 30.27 854 25.22 -5.3 22.5 78 -8.5 16.7
07:45 1025 30.27 854 25.22 -5.2 22.7 77 -8.6 16.5
07:50 1025 30.27 854 25.22 -4.7 23.5 75 -8.5 16.8
07:55 1025 30.27 854 25.22 -4.6 23.8 75 -8.3 17.1
08:00 1025 30.27 854 25.22 -4.7 23.5 75 -8.5 16.7
08:05 1025 30.27 854 25.22 -5.1 22.9 77 -8.5 16.7
08:10 1025 30.27 854 25.22 -5.3 22.4 77 -8.7 16.4
08:15 1025 30.27 854 25.22 -5 23 75 -8.8 16.1
08:20 1025 30.27 854 25.22 -4.9 23.2 76 -8.5 16.7
08:25 1025 30.27 854 25.22 -4.9 23.3 74 -8.8 16.1
08:30 1025 30.27 854 25.22 -4.6 23.8 74 -8.5 16.7
08:35 1025 30.27 854 25.22 -4.5 23.8 74 -8.5 16.6
08:40 1025 30.27 854 25.22 -4.5 24 73 -8.7 16.4
08:45 1025 30.27 854 25.22 -4.4 24.1 73 -8.6 16.6
08:50 1025 30.27 854 25.22 -4.2 24.5 72 -8.6 16.5
08:55 1025 30.27 854 25.22 -3.9 24.9 70 -8.6 16.5
09:00 1025 30.27 854 25.22 -3.7 25.3 70 -8.4 16.8
09:05 1025 30.27 854 25.22 -3.7 25.4 69 -8.5 16.6
09:10 1025 30.27 854 25.22 -3.6 25.6 69 -8.5 16.7
09:15 1025 30.27 854 25.22 -3.5 25.7 69 -8.3 17
09:20 1025 30.27 854 25.22 -3.4 25.8 68 -8.5 16.7
09:25 1025 30.27 854 25.22 -3.4 26 68 -8.4 16.8
09:30 1025 30.27 854 25.22 -3.3 26.1 68 -8.3 17
09:35 1025 30.27 854 25.22 -3.1 26.4 67 -8.5 16.8
09:40 1025 30.27 854 25.22 -2.7 27.2 65 -8.3 17.1
09:45 1025 30.27 854 25.22 -2.3 27.9 64 -8.1 17.4
09:50 1024 30.24 854 25.22 -1.9 28.6 64 -7.9 17.8
09:55 1024 30.24 854 25.22 -1.9 28.7 65 -7.7 18.2
10:00 1025 30.27 854 25.22 -1.1 30 61 -7.8 18
10:05 1025 30.27 854 25.22 -0.7 30.8 59 -7.7 18.2
10:10 1025 30.27 854 25.22 -0.4 31.3 59 -7.4 18.7
10:15 1025 30.27 854 25.22 0.3 32.6 56 -7.5 18.4
10:20 1024 30.24 854 25.22 0.5 32.9 56 -7.4 18.7
10:25 1024 30.24 854 25.22 1 33.9 53 -7.6 18.4
10:30 1025 30.27 854 25.22 1.2 34.2 52 -7.6 18.4
10:35 1025 30.27 854 25.22 1.6 34.8 54 -6.9 19.6
10:40 1025 30.27 854 25.22 1.5 34.6 52 -7.4 18.7
10:45 1025 30.27 854 25.22 1.3 34.3 52 -7.5 18.5
10:50 1025 30.27 854 25.22 1.4 34.5 50 -7.9 17.7
10:55 1024 30.24 854 25.22 1.4 34.5 52 -7.4 18.8
11:00 1024 30.24 854 25.22 1 33.8 53 -7.5 18.6
11:05 1024 30.24 854 25.22 0.3 32.5 56 -7.6 18.4
11:10 1024 30.24 854 25.22 0.3 32.6 56 -7.5 18.6
11:15 1024 30.24 854 25.22 0.7 33.3 55 -7.4 18.7
11:20 1024 30.24 854 25.22 0.6 33.2 53 -8 17.6
11:25 1024 30.24 854 25.22 0.7 33.3 52 -8 17.6
11:30 1024 30.24 854 25.22 1.2 34.1 52 -7.6 18.3
11:35 1024 30.24 854 25.22 1.5 34.7 49 -8 17.6
11:40 1024 30.24 853 25.19 2 35.5 48 -8 17.6
11:45 1024 30.24 853 25.19 1.7 35.1 50 -7.7 18.1
11:50 1024 30.24 853 25.19 1.9 35.3 47 -8.2 17.2
11:55 1024 30.24 853 25.19 2.2 36 47 -7.9 17.8
12:00 1024 30.24 853 25.19 2.4 36.3 44 -8.6 16.6
12:05 1024 30.24 853 25.19 2.6 36.6 47 -7.6 18.3
12:10 1024 30.24 853 25.19 2.8 37.1 45 -7.9 17.8
12:15 1024 30.24 853 25.19 3.2 37.7 44 -8 17.5
12:20 1024 30.24 853 25.19 2.8 37.1 44 -8.2 17.2
12:25 1024 30.24 853 25.19 2.8 37 43 -8.5 16.8
12:30 1024 30.24 853 25.19 3.1 37.6 44 -8.2 17.3
12:35 1024 30.24 853 25.19 2.5 36.5 45 -8.2 17.2
12:40 1024 30.24 853 25.19 2.8 37 43 -8.6 16.6
12:45 1023 30.21 853 25.19 3 37.5 44 -8.2 17.3
12:50 1023 30.21 853 25.19 3 37.4 45 -8 17.7
12:55 1023 30.21 852 25.16 3.3 38 43 -8.1 17.5
13:00 1023 30.21 852 25.16 3.5 38.3 45 -7.4 18.7
13:05 1023 30.21 852 25.16 3.9 39 43 -7.6 18.2
13:10 1023 30.21 852 25.16 3.3 38 44 -7.8 17.9
13:15 1023 30.21 852 25.16 3.2 37.8 44 -8 17.6
13:20 1023 30.21 852 25.16 3.1 37.6 45 -7.8 18
13:25 1023 30.21 852 25.16 3.6 38.4 44 -7.7 18.2
13:30 1023 30.21 852 25.16 3.7 38.6 44 -7.6 18.3
13:35 1023 30.21 852 25.16 3.4 38.1 46 -7.3 18.9
13:40 1023 30.21 852 25.16 4.3 39.7 40 -8.3 17.1
13:45 1022 30.18 852 25.16 4.3 39.7 44 -7 19.4
13:50 1022 30.18 852 25.16 3.7 38.6 43 -7.6 18.2
13:55 1022 30.18 851 25.13 4 39.1 43 -7.4 18.7
14:00 1022 30.18 851 25.13 4.3 39.8 41 -7.8 18
14:05 1022 30.18 851 25.13 4.7 40.4 41 -7.4 18.7
14:10 1022 30.18 851 25.13 5.3 41.6 38 -7.9 17.8
14:15 1022 30.18 851 25.13 4.4 40 42 -7.4 18.8
14:20 1022 30.18 851 25.13 4.3 39.7 42 -7.6 18.4
14:25 1022 30.18 851 25.13 4.5 40.1 41 -7.7 18.1
14:30 1022 30.18 851 25.13 5.8 42.4 38 -7.4 18.7
14:35 1022 30.18 851 25.13 6.2 43.1 37 -7.4 18.7
14:40 1021 30.15 851 25.13 6.2 43.1 37 -7.5 18.4
14:45 1021 30.15 851 25.13 4.7 40.5 40 -7.8 17.9
14:50 1021 30.15 851 25.13 3.8 38.9 43 -7.6 18.4
14:55 1021 30.15 850 25.1 3.9 39 43 -7.5 18.5
15:00 1021 30.15 850 25.1 4.3 39.7 44 -6.9 19.6
15:05 1021 30.15 850 25.1 4.7 40.5 44 -6.5 20.3
15:10 1021 30.15 850 25.1 5.1 41.2 41 -7 19.4
15:15 1021 30.15 850 25.1 5.5 42 42 -6.2 20.8
15:20 1021 30.15 850 25.1 5.3 41.5 43 -6.3 20.7
15:25 1021 30.15 850 25.1 5.1 41.2 44 -6.2 20.8
15:30 1021 30.15 850 25.1 4.5 40 46 -6.3 20.7
15:35 1021 30.15 850 25.1 4.5 40 45 -6.6 20.1
15:40 1021 30.15 850 25.1 5.3 41.6 41 -6.9 19.5
15:45 1021 30.15 850 25.1 5.1 41.1 41 -7.2 19.1
15:50 1021 30.15 850 25.1 4.7 40.5 43 -6.7 20
15:55 1021 30.15 850 25.1 4.4 39.9 44 -6.8 19.8
16:00 1021 30.15 850 25.1 4.2 39.5 44 -7 19.4
16:05 1021 30.15 850 25.1 3.7 38.7 47 -6.6 20
16:10 1021 30.15 850 25.1 3.8 38.8 48 -6.3 20.6
16:15 1021 30.15 850 25.1 4 39.2 47 -6.2 20.8
16:20 1021 30.15 850 25.1 4.5 40.1 45 -6.6 20.2
16:25 1020 30.12 850 25.1 5 41 44 -6.4 20.5
16:30 1020 30.12 850 25.1 4.7 40.5 46 -5.9 21.4
16:35 1020 30.12 850 25.1 5.1 41.3 44 -6.2 20.9
16:40 1021 30.15 850 25.1 5.5 41.9 44 -5.7 21.8
16:45 1020 30.12 850 25.1 5.2 41.4 43 -6.3 20.7
16:50 1020 30.12 850 25.1 5.5 41.8 43 -6 21.2
16:55 1020 30.12 850 25.1 5.3 41.6 44 -5.9 21.3
17:00 1020 30.12 850 25.1 5.1 41.1 45 -6 21.3
17:05 1020 30.12 849 25.07 5.1 41.2 45 -5.9 21.3
17:10 1020 30.12 849 25.07 5.3 41.6 45 -5.7 21.8
17:15 1020 30.12 849 25.07 5.3 41.6 45 -5.7 21.8
17:20 1020 30.12 849 25.07 5 41 46 -5.8 21.6
17:25 1020 30.12 849 25.07 5.1 41.2 46 -5.7 21.8
17:30 1020 30.12 849 25.07 5 41.1 45 -5.8 21.6
17:35 1020 30.12 849 25.07 4.9 40.9 47 -5.5 22.1
17:40 1020 30.12 849 25.07 4.4 39.9 47 -5.9 21.4
17:45 1020 30.12 849 25.07 4.2 39.6 48 -5.8 21.6
17:50 1020 30.12 849 25.07 4 39.2 49 -5.8 21.6
17:55 1020 30.12 849 25.07 4 39.1 50 -5.6 22
18:00 1020 30.12 849 25.07 3.5 38.3 52 -5.3 22.4
18:05 1020 30.12 849 25.07 3 37.5 54 -5.4 22.3
18:10 1020 30.12 849 25.07 2.9 37.3 55 -5.1 22.7
18:15 1020 30.12 849 25.07 2.5 36.6 58 -4.8 23.3
18:20 1020 30.12 849 25.07 2.2 36 60 -4.7 23.5
18:25 1020 30.12 849 25.07 1.9 35.4 63 -4.4 24.1
18:30 1020 30.12 849 25.07 1.4 34.6 66 -4.3 24.2
18:35 1020 30.12 849 25.07 1 33.9 67 -4.5 23.9
18:40 1019 30.09 849 25.07 0.8 33.5 67 -4.7 23.6
18:45 1019 30.09 849 25.07 0.8 33.5 66 -4.8 23.4
18:50 1019 30.09 849 25.07 0.8 33.5 68 -4.4 24.1
18:55 1019 30.09 849 25.07 0.4 32.6 70 -4.5 23.9
19:00 1019 30.09 849 25.07 0.2 32.3 71 -4.5 23.9
19:05 1019 30.09 849 25.07 0 32.1 69 -5 23
19:10 1019 30.09 849 25.07 0.4 32.7 67 -5 22.9
19:15 1019 30.09 849 25.07 0.5 33 67 -4.8 23.3
19:20 1019 30.09 849 25.07 0.5 32.9 71 -4.2 24.4
19:25 1019 30.09 849 25.07 0.3 32.5 75 -3.7 25.3
19:30 1019 30.09 848 25.04 0.2 32.3 75 -3.7 25.3
19:35 1019 30.09 848 25.04 -0 31.9 77 -3.7 25.4
19:40 1019 30.09 848 25.04 -0.3 31.5 77 -3.7 25.3
19:45 1019 30.09 849 25.07 -0.4 31.2 78 -3.8 25.1
19:50 1019 30.09 849 25.07 -0.5 31 79 -3.7 25.3
19:55 1019 30.09 849 25.07 -0.5 31.2 79 -3.7 25.3
20:00 1019 30.09 848 25.04 -0.4 31.4 79 -3.6 25.5
20:05 1019 30.09 848 25.04 -0.3 31.5 78 -3.6 25.5
20:10 1019 30.09 848 25.04 0 32 77 -3.5 25.8
20:15 1019 30.09 848 25.04 0.2 32.3 78 -3.3 26.1
20:20 1019 30.09 848 25.04 -0 31.9 77 -3.5 25.6
20:25 1019 30.09 848 25.04 -0.1 31.7 76 -3.9 25.1
20:30 1019 30.09 848 25.04 -0.3 31.5 77 -3.8 25.1
20:35 1019 30.09 848 25.04 -0.7 30.7 80 -3.8 25.2
20:40 1019 30.09 848 25.04 -0.5 31.1 78 -3.9 25
20:45 1019 30.09 848 25.04 -0.5 31.2 79 -3.6 25.5
20:50 1019 30.09 848 25.04 -0.8 30.6 78 -4.2 24.5
20:55 1019 30.09 848 25.04 -0.6 30.9 80 -3.7 25.4
21:00 1019 30.09 848 25.04 -0.6 30.9 78 -3.9 24.9
21:05 1019 30.09 848 25.04 -0.8 30.6 79 -3.9 25
21:10 1019 30.09 848 25.04 -1 30.3 80 -3.9 24.9
21:15 1019 30.09 848 25.04 -1.1 30.1 82 -3.7 25.3
21:20 1019 30.09 848 25.04 -1.1 30 82 -3.8 25.2
21:25 1019 30.09 848 25.04 -1.1 30 81 -4 24.8
21:30 1019 30.09 848 25.04 -1.1 30 80 -4 24.7
21:35 1019 30.09 848 25.04 -1.2 29.8 82 -4 24.9
21:40 1019 30.09 848 25.04 -1.1 30 81 -3.9 24.9
21:45 1019 30.09 848 25.04 -1.2 29.9 81 -4.1 24.6
21:50 1019 30.09 848 25.04 -1 30.2 80 -4 24.7
21:55 1019 30.09 848 25.04 -1.1 30 81 -4.1 24.7
22:00 1019 30.09 848 25.04 -1.1 30 80 -4.2 24.5
22:05 1019 30.09 848 25.04 -1 30.2 78 -4.3 24.3
22:10 1019 30.09 848 25.04 -1.3 29.6 80 -4.3 24.2
22:15 1019 30.09 848 25.04 -1.6 29.1 81 -4.5 24
22:20 1019 30.09 848 25.04 -1.3 29.7 79 -4.4 24.1
22:25 1019 30.09 848 25.04 -0.9 30.5 79 -4.1 24.7
22:30 1019 30.09 848 25.04 -1 30.2 79 -4.2 24.5
22:35 1019 30.09 848 25.04 -1.2 29.9 81 -4.1 24.6
22:40 1019 30.09 848 25.04 -1.2 29.9 80 -4.2 24.4
22:45 1019 30.09 848 25.04 -1.1 30 80 -4.2 24.4
22:50 1019 30.09 848 25.04 -1.2 29.9 80 -4.3 24.3
22:55 1019 30.09 848 25.04 -1.2 29.8 80 -4.3 24.2
23:00 1019 30.09 848 25.04 -1.4 29.5 79 -4.5 23.8
23:05 1019 30.09 848 25.04 -1.5 29.4 79 -4.6 23.8
23:10 1019 30.09 848 25.04 -1.5 29.3 80 -4.6 23.8
23:15 1019 30.09 848 25.04 -1.5 29.2 80 -4.6 23.8
23:20 1019 30.09 848 25.04 -1.4 29.4 79 -4.6 23.7
23:25 1019 30.09 848 25.04 -1.5 29.4 79 -4.6 23.7
23:30 1019 30.09 848 25.04 -1.6 29.2 79 -4.7 23.5
23:35 1019 30.09 848 25.04 -1.7 28.9 79 -4.8 23.3
23:40 1019 30.09 848 25.04 -1.9 28.6 80 -4.9 23.1
23:45 1019 30.09 848 25.04 -2.2 28 81 -5.1 22.8
23:50 1018 30.06 848 25.04 -2.4 27.7 82 -5.1 22.9
23:55 1018 30.06 848 25.04 -2.4 27.7 81 -5.1 22.8
24:00 1018 30.06 848 25.04 -2.5 27.5 82 -5.1 22.9